Time;durP1;ratioP1;P1;durP2;ratioP2;P2;SDS_P1;SDS_P2;PMS_P1;PMS_P2;Temp;Humidity;BMP_temperature;BMP_pressure;BME280_temperature;BME280_humidity;BME280_pressure;Samples;Min_cycle;Max_cycle;Signal;HPM_P1;HPM_P2
2021/01/29 06:14:25;;;;;;;2.13;1.27;;;18.10;70.50;;;;;;5054653;28;20407;-31
2021/01/29 06:16:56;;;;;;;1.90;1.60;;;18.50;70.90;;;;;;5020582;28;20050;-27
2021/01/29 06:19:40;;;;;;;1.95;1.80;;;18.60;70.80;;;;;;5019932;28;20296;-27
2021/01/29 06:22:33;;;;;;;2.10;1.90;;;18.70;70.70;;;;;;5025008;28;20044;-29
2021/01/29 06:25:08;;;;;;;4.00;1.80;;;18.70;70.00;;;;;;5022067;28;20152;-34
2021/01/29 06:27:56;;;;;;;1.77;1.67;;;18.70;70.10;;;;;;4674042;28;10000258;-38
2021/01/29 06:30:43;;;;;;;1.83;1.40;;;18.70;70.10;;;;;;4990470;28;20100;-29
2021/01/29 06:33:45;;;;;;;1.70;1.35;;;18.70;70.30;;;;;;5020537;28;20038;-34
2021/01/29 06:36:31;;;;;;;2.20;1.80;;;18.70;70.20;;;;;;5020644;28;20052;-30
2021/01/29 06:38:57;;;;;;;5.15;1.90;;;18.70;70.40;;;;;;5018511;28;20538;-28
2021/01/29 06:41:51;;;;;;;2.88;1.50;;;18.70;70.20;;;;;;5023339;28;20044;-27
2021/01/29 06:44:30;;;;;;;2.85;1.48;;;18.80;70.20;;;;;;5023495;28;20041;-28
2021/01/29 06:47:32;;;;;;;2.53;1.70;;;18.80;69.80;;;;;;5003411;28;20053;-29
2021/01/29 06:50:15;;;;;;;3.53;1.40;;;18.90;69.30;;;;;;5020490;28;20505;-28
2021/01/29 06:53:01;;;;;;;2.28;1.55;;;18.90;69.00;;;;;;5035067;28;20047;-28
2021/01/29 06:55:30;;;;;;;5.50;2.03;;;18.80;69.70;;;;;;5030788;28;20037;-30
2021/01/29 06:58:12;;;;;;;4.00;1.75;;;18.70;69.80;;;;;;5043777;28;20044;-30
2021/01/29 07:00:41;;;;;;;3.10;1.52;;;18.70;69.90;;;;;;5070675;28;20052;-31
2021/01/29 07:03:24;;;;;;;2.78;1.65;;;18.70;69.90;;;;;;5043730;28;20080;-31
2021/01/29 07:06:14;;;;;;;3.78;1.77;;;18.70;69.90;;;;;;5025349;28;20446;-28
2021/01/29 07:08:54;;;;;;;3.30;1.73;;;18.70;69.90;;;;;;5046818;28;20041;-29
2021/01/29 07:11:26;;;;;;;1.92;1.02;;;18.80;69.70;;;;;;5041000;28;20103;-39
2021/01/29 07:14:08;;;;;;;3.17;1.65;;;18.80;69.00;;;;;;5043962;28;20598;-31
2021/01/29 07:16:53;;;;;;;1.60;1.40;;;18.80;69.30;;;;;;5012880;28;20044;-32
2021/01/29 07:19:58;;;;;;;4.15;1.77;;;18.90;68.70;;;;;;5018175;28;20128;-30
2021/01/29 07:22:35;;;;;;;2.20;1.58;;;18.90;68.80;;;;;;5024486;28;20041;-29
2021/01/29 07:25:27;;;;;;;3.72;2.05;;;18.90;68.90;;;;;;5028542;28;20037;-29
2021/01/29 07:27:56;;;;;;;1.77;1.40;;;18.90;68.60;;;;;;5024915;28;20103;-32
2021/01/29 07:30:27;;;;;;;1.30;1.17;;;18.90;68.50;;;;;;5031818;28;20037;-31
2021/01/29 07:33:01;;;;;;;3.05;1.52;;;19.00;68.20;;;;;;5025540;28;20049;-33
2021/01/29 07:35:29;;;;;;;1.47;1.37;;;19.00;68.00;;;;;;5028827;28;20041;-30
2021/01/29 07:38:04;;;;;;;1.83;1.58;;;19.00;67.80;;;;;;5029218;28;20045;-31
2021/01/29 07:40:40;;;;;;;1.73;1.45;;;19.10;67.70;;;;;;5029888;28;20048;-33
2021/01/29 07:43:23;;;;;;;1.60;1.27;;;19.20;67.30;;;;;;5028901;28;20132;-30
2021/01/29 07:45:55;;;;;;;3.55;1.88;;;19.10;67.40;;;;;;5029347;28;20084;-35
2021/01/29 07:48:55;;;;;;;1.88;1.35;;;19.00;67.70;;;;;;5030963;28;20400;-27
2021/01/29 07:51:42;;;;;;;3.63;1.42;;;19.00;67.80;;;;;;5049388;28;20049;-33
2021/01/29 07:54:36;;;;;;;2.00;1.70;;;19.00;68.00;;;;;;5031962;28;20038;-27
2021/01/29 07:57:25;;;;;;;1.55;1.25;;;19.00;67.80;;;;;;5030022;28;20123;-30
2021/01/29 08:00:22;;;;;;;1.48;1.23;;;19.10;67.90;;;;;;5028199;28;20544;-32
2021/01/29 08:03:18;;;;;;;3.17;1.50;;;19.10;67.30;;;;;;4987020;28;20166;-30
2021/01/29 08:06:04;;;;;;;1.73;1.40;;;19.10;67.70;;;;;;4987928;28;20137;-34
2021/01/29 08:08:32;;;;;;;4.95;1.30;;;19.10;67.60;;;;;;4974921;28;20034;-33
2021/01/29 08:10:58;;;;;;;1.30;1.20;;;19.20;67.60;;;;;;4974546;28;20175;-32
2021/01/29 08:13:42;;;;;;;2.03;1.20;;;19.20;67.40;;;;;;4973299;28;20105;-31
2021/01/29 08:16:26;;;;;;;1.90;1.13;;;19.20;67.30;;;;;;4966601;28;20046;-31
2021/01/29 08:19:11;;;;;;;2.28;1.30;;;19.20;67.30;;;;;;4988932;28;20289;-28
2021/01/29 08:21:48;;;;;;;3.25;1.42;;;19.10;67.20;;;;;;4993266;28;20038;-34
2021/01/29 08:24:39;;;;;;;1.30;1.15;;;19.20;67.20;;;;;;4986342;28;20042;-28
2021/01/29 08:27:23;;;;;;;2.33;1.40;;;19.20;67.00;;;;;;4992408;28;20050;-33
2021/01/29 08:30:15;;;;;;;1.33;1.20;;;19.20;67.20;;;;;;4990694;28;20050;-34
2021/01/29 08:33:12;;;;;;;1.25;1.13;;;19.10;67.10;;;;;;4988628;28;20047;-33
2021/01/29 08:35:49;;;;;;;1.40;1.17;;;19.10;67.40;;;;;;4993299;28;20155;-31
2021/01/29 08:38:34;;;;;;;1.40;1.20;;;19.00;67.20;;;;;;4994240;28;20096;-30
2021/01/29 08:41:37;;;;;;;1.63;1.48;;;19.10;67.40;;;;;;5015175;28;20069;-30
2021/01/29 08:44:14;;;;;;;1.45;1.35;;;19.10;67.30;;;;;;5026064;28;20068;-31
2021/01/29 08:46:45;;;;;;;2.42;1.33;;;19.10;67.50;;;;;;5023440;28;20477;-29
2021/01/29 08:49:32;;;;;;;1.67;1.20;;;19.10;67.10;;;;;;5023921;28;20033;-28
2021/01/29 08:52:05;;;;;;;1.70;1.20;;;19.10;66.90;;;;;;5026986;28;20041;-32
2021/01/29 08:54:36;;;;;;;1.40;1.20;;;19.20;67.60;;;;;;5028322;28;20038;-31
2021/01/29 08:57:08;;;;;;;1.85;1.30;;;19.20;66.90;;;;;;5025384;28;20279;-30
2021/01/29 08:59:35;;;;;;;1.40;1.30;;;19.20;66.80;;;;;;5028860;28;20511;-31
2021/01/29 09:02:27;;;;;;;1.75;1.63;;;19.20;66.70;;;;;;5025334;28;20127;-34
2021/01/29 09:05:08;;;;;;;1.80;1.33;;;19.10;66.80;;;;;;5028256;28;20057;-30
2021/01/29 09:07:35;;;;;;;2.25;1.30;;;19.10;67.00;;;;;;5012104;28;20132;-31
2021/01/29 09:10:18;;;;;;;2.75;1.38;;;19.20;66.80;;;;;;5027215;28;20091;-28
2021/01/29 09:12:43;;;;;;;1.77;1.67;;;19.20;66.50;;;;;;5031854;28;20049;-34
2021/01/29 09:15:18;;;;;;;1.55;1.10;;;19.30;66.60;;;;;;5029506;28;20042;-29
2021/01/29 09:18:05;;;;;;;2.10;1.27;;;19.20;66.50;;;;;;5025615;28;20041;-31
2021/01/29 09:20:44;;;;;;;1.77;1.15;;;19.20;66.70;;;;;;5013066;28;20465;-37
2021/01/29 09:23:20;;;;;;;2.47;1.48;;;19.10;66.60;;;;;;5028872;28;20045;-29
2021/01/29 09:25:58;;;;;;;1.98;1.00;;;19.10;66.60;;;;;;5026627;28;20041;-33
2021/01/29 09:28:32;;;;;;;2.38;1.30;;;19.10;66.70;;;;;;5025444;28;20087;-31
2021/01/29 09:31:09;;;;;;;1.95;1.27;;;19.10;66.60;;;;;;5018115;28;20438;-30
2021/01/29 09:33:48;;;;;;;1.30;1.10;;;19.00;66.70;;;;;;5030158;28;20037;-31
2021/01/29 09:36:18;;;;;;;2.70;1.40;;;19.10;66.50;;;;;;5043034;28;20050;-33
2021/01/29 09:38:50;;;;;;;2.25;1.05;;;19.10;66.30;;;;;;5012469;28;20051;-32
2021/01/29 09:41:33;;;;;;;1.40;0.93;;;19.10;66.50;;;;;;5029198;28;20037;-28
2021/01/29 09:44:25;;;;;;;1.42;1.33;;;19.10;66.30;;;;;;5025432;28;20049;-34
2021/01/29 09:46:55;;;;;;;2.13;1.25;;;19.10;66.50;;;;;;5025539;28;20064;-36
2021/01/29 09:49:22;;;;;;;1.58;1.10;;;19.10;66.50;;;;;;5010570;28;20037;-34
2021/01/29 09:51:59;;;;;;;1.50;1.40;;;19.00;66.50;;;;;;5027817;28;20054;-30
2021/01/29 09:54:50;;;;;;;2.42;1.45;;;19.10;66.50;;;;;;5032026;28;20065;-28
2021/01/29 09:57:34;;;;;;;1.60;1.33;;;19.10;66.50;;;;;;5029515;28;20045;-33
2021/01/29 10:00:15;;;;;;;1.77;1.35;;;19.10;66.20;;;;;;5012450;28;20072;-28
2021/01/29 10:03:18;;;;;;;1.67;1.20;;;19.10;66.30;;;;;;5024539;28;20041;-31
2021/01/29 10:06:01;;;;;;;1.50;1.10;;;19.20;66.30;;;;;;5025344;28;20159;-30
2021/01/29 10:08:33;;;;;;;1.27;1.17;;;19.10;66.40;;;;;;5028334;28;20139;-31
2021/01/29 10:11:25;;;;;;;1.48;1.30;;;19.20;66.30;;;;;;5008232;28;20052;-34
2021/01/29 10:14:16;;;;;;;1.60;1.10;;;19.20;66.20;;;;;;5026894;28;20045;-29
2021/01/29 10:16:52;;;;;;;2.00;1.10;;;19.20;66.20;;;;;;5036907;28;20045;-34
2021/01/29 10:19:38;;;;;;;2.45;1.05;;;19.30;66.10;;;;;;5022595;28;20196;-30
2021/01/29 10:22:25;;;;;;;1.60;1.40;;;19.30;66.30;;;;;;5019475;28;20068;-31
2021/01/29 10:24:55;;;;;;;1.58;1.02;;;19.30;66.00;;;;;;5027082;28;20048;-32
2021/01/29 10:27:59;;;;;;;1.55;1.00;;;19.30;66.20;;;;;;5028830;28;20398;-31
2021/01/29 10:30:37;;;;;;;1.67;1.00;;;19.30;66.20;;;;;;5033925;28;20029;-30
2021/01/29 10:33:06;;;;;;;1.08;0.93;;;19.30;65.90;;;;;;5023354;28;20805;-33
2021/01/29 10:35:36;;;;;;;1.58;1.35;;;19.40;65.80;;;;;;5026789;28;20038;-31
2021/01/29 10:38:24;;;;;;;2.47;1.00;;;19.40;65.70;;;;;;5024997;28;20038;-34
2021/01/29 10:41:06;;;;;;;1.60;0.98;;;19.50;65.50;;;;;;5025115;28;20148;-30
2021/01/29 10:43:45;;;;;;;1.45;0.93;;;19.50;65.10;;;;;;5024451;28;20054;-32
2021/01/29 10:46:16;;;;;;;1.60;1.38;;;19.60;65.00;;;;;;5024068;28;20054;-33
2021/01/29 10:48:47;;;;;;;1.30;0.85;;;19.70;64.70;;;;;;5032160;28;20037;-29
2021/01/29 10:51:18;;;;;;;1.02;0.93;;;19.70;64.60;;;;;;5033148;28;20056;-31
2021/01/29 10:53:44;;;;;;;1.17;0.90;;;19.80;64.30;;;;;;5032283;28;20080;-30
2021/01/29 10:56:14;;;;;;;0.90;0.90;;;19.80;64.30;;;;;;5030232;28;20037;-30
2021/01/29 10:58:52;;;;;;;2.17;1.05;;;19.80;63.90;;;;;;5011774;28;20053;-31
2021/01/29 11:01:30;;;;;;;1.00;0.90;;;19.80;63.80;;;;;;5028645;28;20128;-29
2021/01/29 11:04:09;;;;;;;0.70;0.68;;;19.90;63.70;;;;;;5044152;28;20048;-29
2021/01/29 11:06:46;;;;;;;1.30;0.90;;;20.00;63.40;;;;;;5032306;28;20042;-30
2021/01/29 11:09:30;;;;;;;1.10;0.93;;;20.00;63.20;;;;;;5034761;28;20494;-36
2021/01/29 11:12:27;;;;;;;0.90;0.85;;;20.10;63.40;;;;;;5028258;28;20056;-33
2021/01/29 11:14:53;;;;;;;1.65;1.00;;;20.00;63.30;;;;;;5031128;28;20445;-32
2021/01/29 11:17:47;;;;;;;1.00;0.70;;;20.00;63.20;;;;;;5029190;28;20526;-31
2021/01/29 11:20:20;;;;;;;1.33;0.80;;;20.00;63.20;;;;;;5030417;28;20055;-32
2021/01/29 11:22:56;;;;;;;1.08;0.80;;;20.00;63.20;;;;;;5015700;28;20083;-33
2021/01/29 11:25:44;;;;;;;1.70;1.08;;;20.00;63.10;;;;;;5022158;28;20140;-34
2021/01/29 11:28:16;;;;;;;2.58;0.88;;;20.10;63.10;;;;;;4677232;28;10000602;-36
2021/01/29 11:30:56;;;;;;;2.05;1.00;;;20.20;62.70;;;;;;5026794;28;20132;-27
2021/01/29 11:33:26;;;;;;;1.17;0.98;;;20.20;62.80;;;;;;5028634;28;20534;-30
2021/01/29 11:36:12;;;;;;;1.00;0.80;;;20.20;62.70;;;;;;5022802;28;20486;-31
2021/01/29 11:38:47;;;;;;;1.58;1.00;;;20.20;62.80;;;;;;5025988;28;20071;-33
2021/01/29 11:41:34;;;;;;;2.78;0.90;;;20.20;62.60;;;;;;5026925;28;20104;-32
2021/01/29 11:44:25;;;;;;;0.88;0.82;;;20.20;62.70;;;;;;5025789;28;20132;-28
2021/01/29 11:47:25;;;;;;;2.35;0.82;;;20.20;62.80;;;;;;5025906;28;20095;-28
2021/01/29 11:50:03;;;;;;;1.42;0.90;;;20.20;63.00;;;;;;5018501;28;20037;-34
2021/01/29 11:52:39;;;;;;;1.58;0.98;;;20.20;63.00;;;;;;5028671;28;20050;-33
2021/01/29 11:55:22;;;;;;;2.20;0.85;;;20.20;63.20;;;;;;5017229;28;20050;-32
2021/01/29 11:58:15;;;;;;;1.67;0.95;;;20.20;63.00;;;;;;5022942;28;20644;-29
2021/01/29 12:00:49;;;;;;;0.88;0.77;;;20.20;63.00;;;;;;5028795;28;20042;-32
2021/01/29 12:03:40;;;;;;;1.25;0.90;;;20.20;63.10;;;;;;5039471;28;20500;-32
2021/01/29 12:06:18;;;;;;;2.05;0.80;;;20.30;63.10;;;;;;5026631;28;20053;-37
2021/01/29 12:09:04;;;;;;;0.88;0.57;;;20.30;63.00;;;;;;5022943;28;20128;-31
2021/01/29 12:11:38;;;;;;;1.25;0.80;;;20.30;62.90;;;;;;5034963;28;20102;-31
2021/01/29 12:14:45;;;;;;;0.90;0.75;;;20.30;63.00;;;;;;5020975;28;20423;-32
2021/01/29 12:17:11;;;;;;;1.00;0.80;;;20.30;63.00;;;;;;5020395;28;20041;-32
2021/01/29 12:19:44;;;;;;;0.80;0.80;;;20.30;63.10;;;;;;5023560;28;20056;-30
2021/01/29 12:22:30;;;;;;;1.10;0.57;;;20.30;63.00;;;;;;5019792;28;21001;-30
2021/01/29 12:25:10;;;;;;;1.83;0.80;;;20.40;63.00;;;;;;5007519;28;20046;-31
2021/01/29 12:27:45;;;;;;;1.38;1.25;;;20.40;63.10;;;;;;5012545;28;20506;-31
2021/01/29 12:30:26;;;;;;;1.00;0.90;;;20.40;62.80;;;;;;5026170;28;20112;-30
2021/01/29 12:33:05;;;;;;;1.13;0.70;;;20.40;62.90;;;;;;4997110;28;20045;-34
2021/01/29 12:35:42;;;;;;;0.65;0.55;;;20.40;63.00;;;;;;5011603;28;20517;-35
2021/01/29 12:38:28;;;;;;;1.00;0.70;;;20.30;63.10;;;;;;5028555;28;20063;-31
2021/01/29 12:41:08;;;;;;;1.83;0.68;;;20.30;63.20;;;;;;5029356;28;20053;-33
2021/01/29 12:43:55;;;;;;;1.15;0.80;;;20.30;63.20;;;;;;5010089;28;20057;-38
2021/01/29 12:46:23;;;;;;;1.63;0.95;;;20.40;62.80;;;;;;4993020;28;20044;-31
2021/01/29 12:49:09;;;;;;;0.80;0.80;;;20.30;62.70;;;;;;5018128;28;20541;-33
2021/01/29 12:51:59;;;;;;;0.98;0.60;;;20.40;63.00;;;;;;5028260;28;20048;-30
2021/01/29 12:54:34;;;;;;;1.80;0.80;;;20.40;62.90;;;;;;5005259;28;20045;-32
2021/01/29 12:57:12;;;;;;;0.82;0.70;;;20.40;62.80;;;;;;5024636;28;20050;-35
2021/01/29 12:59:53;;;;;;;1.73;0.90;;;20.40;63.00;;;;;;5020817;28;20054;-29
2021/01/29 13:02:38;;;;;;;1.15;0.73;;;20.30;62.90;;;;;;5043687;28;20068;-29
2021/01/29 13:05:28;;;;;;;0.60;0.50;;;20.30;63.00;;;;;;5026352;28;20045;-31
2021/01/29 13:08:15;;;;;;;2.22;0.90;;;20.20;63.10;;;;;;5024192;28;20042;-32
2021/01/29 13:10:48;;;;;;;2.03;1.00;;;20.20;63.20;;;;;;5026093;28;20052;-32
2021/01/29 13:13:15;;;;;;;2.30;0.80;;;20.20;63.20;;;;;;5021265;28;20053;-32
2021/01/29 13:15:52;;;;;;;1.40;0.57;;;20.20;63.20;;;;;;5031918;28;20525;-32
2021/01/29 13:18:39;;;;;;;0.70;0.60;;;20.20;63.10;;;;;;5034897;28;20380;-29
2021/01/29 13:21:10;;;;;;;2.03;0.80;;;20.20;63.40;;;;;;5031448;28;20556;-35
2021/01/29 13:23:38;;;;;;;1.63;0.60;;;20.20;63.30;;;;;;5025893;28;20398;-35
2021/01/29 13:26:15;;;;;;;0.80;0.80;;;20.20;63.40;;;;;;5030611;28;20056;-31
2021/01/29 13:28:57;;;;;;;0.80;0.57;;;20.20;63.50;;;;;;5024207;28;20048;-29
2021/01/29 13:31:30;;;;;;;1.17;0.60;;;20.20;63.50;;;;;;5023213;28;20045;-31
2021/01/29 13:33:57;;;;;;;0.70;0.70;;;20.10;63.30;;;;;;5024835;28;20503;-29
2021/01/29 13:36:31;;;;;;;1.08;0.70;;;20.20;63.20;;;;;;5026835;28;20037;-33
2021/01/29 13:39:06;;;;;;;;;;;20.20;63.40;;;;;;5017381;28;20053;-34
2021/01/29 13:41:54;;;;;;;0.60;0.60;;;20.20;63.40;;;;;;5023985;28;19929;-30
2021/01/29 13:44:29;;;;;;;1.17;0.80;;;20.10;63.50;;;;;;5027556;28;20044;-33
2021/01/29 13:46:55;;;;;;;0.68;0.65;;;20.10;63.20;;;;;;5031288;28;20736;-33
2021/01/29 13:49:31;;;;;;;1.33;0.75;;;20.20;63.70;;;;;;5028890;28;20064;-33
2021/01/29 13:51:57;;;;;;;1.13;0.60;;;20.10;63.40;;;;;;5030414;28;20041;-35
2021/01/29 13:54:31;;;;;;;1.15;0.60;;;20.10;63.30;;;;;;5031269;28;20506;-30
2021/01/29 13:57:01;;;;;;;0.73;0.60;;;20.10;63.60;;;;;;5028679;28;20475;-36
2021/01/29 13:59:39;;;;;;;1.23;0.60;;;20.00;63.60;;;;;;5027098;28;20045;-37
2021/01/29 14:02:29;;;;;;;1.05;0.95;;;20.00;63.70;;;;;;5030661;28;20049;-30
2021/01/29 14:05:01;;;;;;;0.75;0.60;;;20.00;64.00;;;;;;5028851;28;20148;-33
2021/01/29 14:07:27;;;;;;;0.70;0.52;;;19.90;64.10;;;;;;5025537;28;20046;-37
2021/01/29 14:09:52;;;;;;;1.27;0.82;;;19.90;64.20;;;;;;5028924;28;20099;-40
2021/01/29 14:12:50;;;;;;;0.82;0.70;;;19.90;64.20;;;;;;5034737;28;20479;-29
2021/01/29 14:15:42;;;;;;;1.08;0.60;;;19.90;64.20;;;;;;5015153;28;20129;-31
2021/01/29 14:18:30;;;;;;;0.73;0.55;;;19.80;64.30;;;;;;5032159;28;20049;-32
2021/01/29 14:21:04;;;;;;;0.98;0.70;;;19.80;64.20;;;;;;5029796;28;20047;-35
2021/01/29 14:23:42;;;;;;;0.50;0.50;;;19.80;64.40;;;;;;5025832;28;20453;-30
2021/01/29 14:26:23;;;;;;;0.65;0.55;;;19.80;64.30;;;;;;5034637;28;20536;-34
2021/01/29 14:28:59;;;;;;;1.77;0.85;;;19.80;64.30;;;;;;5030957;28;20132;-35
2021/01/29 14:31:30;;;;;;;0.68;0.50;;;19.80;64.20;;;;;;5030917;28;20049;-33
2021/01/29 14:34:17;;;;;;;0.70;0.40;;;19.80;64.30;;;;;;5034502;28;20049;-30
2021/01/29 14:37:13;;;;;;;0.80;0.73;;;19.80;64.50;;;;;;5029073;28;20120;-31
2021/01/29 14:40:29;;;;;;;0.85;0.50;;;19.80;64.30;;;;;;5035474;28;20049;-27
2021/01/29 14:43:15;;;;;;;0.88;0.60;;;19.80;64.40;;;;;;4968098;28;20059;-30
2021/01/29 14:45:51;;;;;;;1.30;0.68;;;19.70;64.30;;;;;;4970841;28;20053;-35
2021/01/29 14:48:55;;;;;;;0.70;0.70;;;19.70;64.30;;;;;;4954939;28;20049;-34
2021/01/29 14:51:57;;;;;;;0.77;0.60;;;19.70;64.40;;;;;;4970937;28;20050;-34
2021/01/29 14:54:24;;;;;;;1.58;0.88;;;19.70;64.30;;;;;;4968058;28;21241;-34
2021/01/29 14:57:14;;;;;;;0.70;0.60;;;19.70;64.40;;;;;;4967523;28;20043;-32
2021/01/29 15:00:00;;;;;;;1.00;0.60;;;19.70;64.40;;;;;;4937483;28;20134;-31
2021/01/29 15:02:54;;;;;;;0.70;0.70;;;19.70;64.60;;;;;;4968947;28;20070;-35
2021/01/29 15:05:32;;;;;;;1.15;0.70;;;19.60;64.60;;;;;;4951670;28;20154;-32
2021/01/29 15:07:58;;;;;;;0.95;0.52;;;19.60;64.60;;;;;;4953915;28;20113;-32
2021/01/29 15:10:29;;;;;;;3.45;0.60;;;19.60;64.50;;;;;;4951765;28;20038;-31
2021/01/29 15:12:55;;;;;;;0.90;0.65;;;19.70;64.00;;;;;;4966530;28;20588;-37
2021/01/29 15:15:20;;;;;;;0.60;0.60;;;19.80;64.00;;;;;;4966007;28;20147;-32
2021/01/29 15:17:58;;;;;;;1.02;0.80;;;19.70;64.10;;;;;;4968431;28;20688;-34
2021/01/29 15:20:39;;;;;;;0.75;0.65;;;19.80;63.80;;;;;;4994981;28;20451;-32
2021/01/29 15:23:26;;;;;;;1.58;0.60;;;19.80;63.90;;;;;;5028147;28;20533;-31
2021/01/29 15:25:59;;;;;;;1.30;0.50;;;19.80;63.40;;;;;;5027431;28;20056;-34
2021/01/29 15:28:32;;;;;;;0.60;0.60;;;19.80;63.70;;;;;;5026064;28;20505;-30
2021/01/29 15:31:31;;;;;;;2.58;0.50;;;19.70;63.90;;;;;;5044420;28;20095;-35
2021/01/29 15:33:57;;;;;;;0.65;0.40;;;19.70;63.70;;;;;;5027475;28;20112;-33
2021/01/29 15:36:45;;;;;;;0.90;0.70;;;19.80;64.10;;;;;;5034021;28;20096;-31
2021/01/29 15:39:22;;;;;;;1.08;0.63;;;19.70;64.00;;;;;;5032257;28;20041;-34
2021/01/29 15:41:53;;;;;;;2.05;0.57;;;19.70;64.10;;;;;;5032250;28;20053;-31
2021/01/29 15:44:24;;;;;;;1.00;0.63;;;19.70;63.90;;;;;;5028267;28;20061;-32
2021/01/29 15:46:59;;;;;;;0.75;0.50;;;19.70;64.30;;;;;;5031260;28;20038;-31
2021/01/29 15:49:25;;;;;;;0.85;0.65;;;19.60;64.10;;;;;;5025503;28;20045;-30
2021/01/29 15:51:54;;;;;;;1.85;0.50;;;19.60;64.70;;;;;;5030647;28;20580;-29
2021/01/29 15:54:20;;;;;;;1.50;0.80;;;19.60;64.30;;;;;;5031146;28;20045;-32
2021/01/29 15:56:58;;;;;;;1.10;0.63;;;19.60;64.30;;;;;;5028032;28;20045;-34
2021/01/29 15:59:33;;;;;;;0.88;0.60;;;19.60;64.50;;;;;;5029115;28;20049;-37
2021/01/29 16:02:05;;;;;;;2.95;0.70;;;19.50;64.60;;;;;;5027844;28;20062;-32
2021/01/29 16:04:50;;;;;;;1.00;0.70;;;19.50;64.60;;;;;;5024989;28;20506;-38
2021/01/29 16:07:18;;;;;;;;;;;19.50;64.60;;;;;;5042344;28;20100;-30
2021/01/29 16:09:48;;;;;;;0.63;0.50;;;19.60;64.50;;;;;;5030991;28;19924;-30
2021/01/29 16:12:40;;;;;;;2.17;1.15;;;19.70;64.50;;;;;;5042939;28;20058;-33
2021/01/29 16:15:06;;;;;;;1.02;0.60;;;19.60;64.50;;;;;;5027088;28;20082;-35
2021/01/29 16:17:52;;;;;;;7.25;1.00;;;19.60;64.50;;;;;;5031704;28;20049;-36
2021/01/29 16:20:25;;;;;;;2.03;0.50;;;19.60;64.60;;;;;;4982232;28;20034;-34
2021/01/29 16:22:59;;;;;;;0.90;0.50;;;19.60;64.60;;;;;;4982143;28;20137;-30
2021/01/29 16:25:25;;;;;;;2.85;0.88;;;19.70;64.40;;;;;;4979045;28;20157;-33
2021/01/29 16:27:50;;;;;;;0.88;0.63;;;19.70;64.10;;;;;;4986031;28;20042;-30
2021/01/29 16:30:23;;;;;;;1.52;0.63;;;19.60;64.20;;;;;;4984321;28;20660;-31
2021/01/29 16:32:49;;;;;;;1.60;0.60;;;19.60;64.50;;;;;;4988135;28;20639;-33
2021/01/29 16:35:24;;;;;;;1.77;0.90;;;19.60;64.40;;;;;;4988661;28;20104;-35
2021/01/29 16:37:50;;;;;;;1.48;0.75;;;19.50;64.30;;;;;;4988050;28;20050;-32
2021/01/29 16:40:23;;;;;;;2.13;0.90;;;19.50;64.30;;;;;;4987799;28;20080;-31
2021/01/29 16:42:51;;;;;;;1.00;0.60;;;19.50;64.50;;;;;;4989770;28;20075;-31
2021/01/29 16:45:31;;;;;;;1.30;0.68;;;19.50;64.40;;;;;;4988014;28;20092;-35
2021/01/29 16:48:10;;;;;;;3.08;1.35;;;19.50;64.30;;;;;;4991224;28;20042;-34
2021/01/29 16:50:47;;;;;;;2.05;0.70;;;19.50;64.40;;;;;;4987578;28;20054;-31
2021/01/29 16:53:28;;;;;;;0.70;0.70;;;19.50;64.40;;;;;;4988965;28;20068;-32
2021/01/29 16:56:08;;;;;;;1.25;0.63;;;19.40;64.20;;;;;;4989734;28;20058;-35
2021/01/29 16:58:42;;;;;;;1.15;0.70;;;19.40;64.10;;;;;;5021200;28;20045;-43
2021/01/29 17:01:10;;;;;;;2.90;0.80;;;19.50;64.10;;;;;;5026386;28;20046;-30
2021/01/29 17:03:39;;;;;;;1.10;0.80;;;19.50;64.10;;;;;;5024028;28;20045;-33
2021/01/29 17:06:08;;;;;;;1.10;0.80;;;19.60;64.20;;;;;;5024348;28;20403;-32
2021/01/29 17:08:34;;;;;;;1.08;0.70;;;19.50;64.10;;;;;;5021622;28;20053;-33
2021/01/29 17:11:12;;;;;;;0.68;0.68;;;19.50;64.20;;;;;;5022067;28;20410;-32
2021/01/29 17:13:38;;;;;;;1.60;0.60;;;19.60;63.90;;;;;;5017761;28;20057;-32
2021/01/29 17:16:04;;;;;;;1.33;0.85;;;19.50;64.00;;;;;;5022982;28;20042;-36
2021/01/29 17:18:30;;;;;;;1.77;0.65;;;19.50;64.40;;;;;;5027123;28;20060;-34
2021/01/29 17:20:58;;;;;;;1.45;0.70;;;19.40;64.40;;;;;;5021749;28;20044;-34
2021/01/29 17:23:25;;;;;;;2.20;0.77;;;19.40;64.40;;;;;;5025800;28;20041;-33
2021/01/29 17:25:53;;;;;;;1.58;0.70;;;19.40;64.40;;;;;;5019506;28;20422;-37
2021/01/29 17:28:23;;;;;;;1.73;0.80;;;19.40;64.40;;;;;;5021081;28;20486;-34
2021/01/29 17:30:49;;;;;;;2.53;1.02;;;19.40;64.50;;;;;;5008089;28;20049;-32
2021/01/29 17:33:26;;;;;;;0.90;0.90;;;19.50;64.40;;;;;;5025929;28;20107;-31
2021/01/29 17:35:58;;;;;;;0.93;0.65;;;19.50;64.40;;;;;;5035926;28;20045;-33
2021/01/29 17:38:25;;;;;;;0.95;0.57;;;19.50;63.70;;;;;;5011119;28;20038;-31
2021/01/29 17:40:59;;;;;;;0.77;0.60;;;19.50;64.10;;;;;;5023301;28;20046;-34
2021/01/29 17:43:34;;;;;;;1.15;0.70;;;19.60;63.80;;;;;;5016558;28;20525;-35
2021/01/29 17:46:25;;;;;;;1.67;1.00;;;19.60;63.90;;;;;;5025257;28;20532;-32
2021/01/29 17:49:12;;;;;;;1.40;0.82;;;19.60;63.60;;;;;;5024290;28;20049;-35
2021/01/29 17:51:38;;;;;;;2.67;1.27;;;19.50;63.80;;;;;;5028780;28;20092;-35
2021/01/29 17:54:09;;;;;;;1.98;0.95;;;19.50;63.90;;;;;;5027949;28;20400;-33
2021/01/29 17:56:41;;;;;;;1.20;0.82;;;19.40;63.90;;;;;;5021103;28;20049;-33
2021/01/29 17:59:07;;;;;;;2.78;0.90;;;19.40;63.90;;;;;;5025972;28;20041;-34
2021/01/29 18:01:49;;;;;;;1.13;0.88;;;19.40;63.90;;;;;;5025775;28;20095;-36
2021/01/29 18:04:27;;;;;;;0.90;0.77;;;19.40;64.00;;;;;;5023874;28;20067;-33
2021/01/29 18:07:17;;;;;;;1.45;0.93;;;19.40;63.90;;;;;;5025610;28;20082;-38
2021/01/29 18:10:17;;;;;;;1.52;1.20;;;19.40;63.90;;;;;;5029227;28;20511;-31
2021/01/29 18:12:42;;;;;;;2.50;1.00;;;19.40;63.90;;;;;;5025962;28;20060;-35
2021/01/29 18:15:14;;;;;;;1.45;0.80;;;19.30;64.00;;;;;;5029422;28;20037;-32
2021/01/29 18:17:50;;;;;;;0.98;0.88;;;19.30;64.00;;;;;;5026010;28;20465;-33
2021/01/29 18:20:35;;;;;;;1.08;1.00;;;19.30;63.90;;;;;;5023501;28;20140;-32
2021/01/29 18:23:21;;;;;;;1.33;1.23;;;19.30;64.10;;;;;;5024482;28;20041;-33
2021/01/29 18:25:47;;;;;;;1.20;1.02;;;19.30;64.10;;;;;;5025362;28;20040;-33
2021/01/29 18:28:31;;;;;;;1.40;0.93;;;19.30;64.30;;;;;;5021245;28;20046;-31
2021/01/29 18:30:58;;;;;;;2.70;0.80;;;19.30;64.30;;;;;;4998858;28;20411;-34
2021/01/29 18:33:26;;;;;;;1.70;1.23;;;19.30;64.30;;;;;;5019324;28;20419;-34
2021/01/29 18:35:52;;;;;;;2.67;1.05;;;19.30;64.20;;;;;;5019954;28;20050;-29
2021/01/29 18:38:18;;;;;;;2.20;1.10;;;19.40;64.30;;;;;;5020045;28;20388;-32
2021/01/29 18:40:45;;;;;;;2.42;1.23;;;19.40;64.60;;;;;;5018626;28;20571;-47
2021/01/29 18:43:11;;;;;;;1.38;0.90;;;19.40;64.70;;;;;;5018371;28;20136;-39
2021/01/29 18:45:37;;;;;;;1.33;1.00;;;19.40;64.70;;;;;;5021673;28;20124;-31
2021/01/29 18:48:02;;;;;;;1.25;1.10;;;19.40;64.70;;;;;;5029450;28;20155;-33
2021/01/29 18:50:28;;;;;;;1.80;1.00;;;19.50;64.40;;;;;;5027460;28;20037;-33
2021/01/29 18:52:54;;;;;;;2.35;0.88;;;19.50;64.70;;;;;;5025795;28;20052;-31
2021/01/29 18:55:20;;;;;;;1.67;1.15;;;19.40;65.00;;;;;;5025422;28;20068;-34
2021/01/29 18:57:46;;;;;;;2.67;1.02;;;19.50;64.50;;;;;;5028544;28;20048;-32
2021/01/29 19:00:12;;;;;;;1.95;1.08;;;19.50;65.20;;;;;;5027656;28;20053;-28
2021/01/29 19:02:38;;;;;;;1.35;1.25;;;19.50;64.30;;;;;;5021478;28;20060;-38
2021/01/29 19:05:04;;;;;;;2.22;1.40;;;19.60;64.80;;;;;;5022673;28;20041;-32
2021/01/29 19:07:30;;;;;;;2.78;1.35;;;19.60;64.50;;;;;;5023801;28;20135;-30
2021/01/29 19:09:55;;;;;;;1.75;0.90;;;19.60;64.10;;;;;;5025459;28;20064;-35
2021/01/29 19:12:21;;;;;;;4.50;1.13;;;19.70;63.80;;;;;;5027846;28;20554;-36
2021/01/29 19:14:46;;;;;;;1.70;1.33;;;19.80;63.40;;;;;;5027209;28;20399;-38
2021/01/29 19:17:12;;;;;;;2.55;1.10;;;19.80;63.30;;;;;;5030426;28;20734;-31
2021/01/29 19:19:38;;;;;;;1.27;1.15;;;19.80;63.50;;;;;;5026870;28;20084;-36
2021/01/29 19:22:03;;;;;;;2.40;1.40;;;19.70;63.90;;;;;;5025707;28;20052;-28
2021/01/29 19:24:29;;;;;;;2.22;1.50;;;19.60;64.20;;;;;;5027502;28;20054;-34
2021/01/29 19:26:55;;;;;;;2.63;1.50;;;19.60;65.10;;;;;;5025335;28;20049;-30
2021/01/29 19:29:20;;;;;;;2.83;1.52;;;19.70;65.20;;;;;;5023797;28;20045;-31
2021/01/29 19:31:46;;;;;;;2.40;1.40;;;19.60;65.10;;;;;;5027096;28;20140;-30
2021/01/29 19:34:12;;;;;;;2.05;1.58;;;19.60;65.30;;;;;;5027149;28;20531;-33
2021/01/29 19:36:38;;;;;;;1.73;1.10;;;19.50;65.20;;;;;;5027923;28;20096;-33
2021/01/29 19:39:05;;;;;;;1.80;1.08;;;19.50;65.40;;;;;;5027889;28;20053;-33
2021/01/29 19:41:30;;;;;;;3.03;1.20;;;19.50;65.60;;;;;;5027368;28;20482;-36
2021/01/29 19:43:56;;;;;;;2.97;1.45;;;19.50;65.50;;;;;;5025510;28;20073;-35
2021/01/29 19:46:21;;;;;;;3.10;2.08;;;19.50;65.90;;;;;;5023489;28;20168;-33
2021/01/29 19:48:47;;;;;;;2.55;1.55;;;19.50;65.60;;;;;;5024895;28;20050;-34
2021/01/29 19:51:13;;;;;;;1.85;1.65;;;19.50;65.70;;;;;;5024122;28;20049;-42
2021/01/29 19:53:39;;;;;;;1.75;1.40;;;19.60;65.80;;;;;;5030719;28;20057;-32